sensor_id;sensor_type;location;lat;lon;timestamp;pressure;altitude;pressure_sealevel;temperature;humidity
30021;BME280;16861;52.294;7.760;2022-11-21T00:00:48;98675.00;;;3.76;60.90
30021;BME280;16861;52.294;7.760;2022-11-21T00:03:15;98685.34;;;3.77;61.00
30021;BME280;16861;52.294;7.760;2022-11-21T00:05:44;98684.34;;;3.80;61.14
30021;BME280;16861;52.294;7.760;2022-11-21T00:08:13;98684.34;;;3.80;61.05
30021;BME280;16861;52.294;7.760;2022-11-21T00:10:40;98698.16;;;3.82;60.78
30021;BME280;16861;52.294;7.760;2022-11-21T00:13:10;98688.63;;;3.81;60.82
30021;BME280;16861;52.294;7.760;2022-11-21T00:15:38;98693.00;;;3.81;60.74
30021;BME280;16861;52.294;7.760;2022-11-21T00:18:04;98686.97;;;3.80;61.00
30021;BME280;16861;52.294;7.760;2022-11-21T00:20:31;98699.13;;;3.80;60.98
30021;BME280;16861;52.294;7.760;2022-11-21T00:22:57;98687.88;;;3.79;60.80
30021;BME280;16861;52.294;7.760;2022-11-21T00:25:24;98700.91;;;3.79;60.80
30021;BME280;16861;52.294;7.760;2022-11-21T00:27:51;98687.94;;;3.77;60.65
30021;BME280;16861;52.294;7.760;2022-11-21T00:30:18;98688.69;;;3.80;61.07
30021;BME280;16861;52.294;7.760;2022-11-21T00:32:44;98686.09;;;3.80;61.04
30021;BME280;16861;52.294;7.760;2022-11-21T00:35:10;98689.56;;;3.80;60.54
30021;BME280;16861;52.294;7.760;2022-11-21T00:37:37;98685.28;;;3.79;60.84
30021;BME280;16861;52.294;7.760;2022-11-21T00:40:04;98688.78;;;3.78;60.98
30021;BME280;16861;52.294;7.760;2022-11-21T00:42:31;98695.75;;;3.77;60.53
30021;BME280;16861;52.294;7.760;2022-11-21T00:44:57;98686.25;;;3.76;60.45
30021;BME280;16861;52.294;7.760;2022-11-21T00:47:24;98694.91;;;3.77;60.77
30021;BME280;16861;52.294;7.760;2022-11-21T00:49:50;98696.59;;;3.78;60.93
30021;BME280;16861;52.294;7.760;2022-11-21T00:52:17;98684.47;;;3.77;61.01
30021;BME280;16861;52.294;7.760;2022-11-21T00:54:43;98700.09;;;3.77;60.98
30021;BME280;16861;52.294;7.760;2022-11-21T00:57:10;98710.44;;;3.78;61.23
30021;BME280;16861;52.294;7.760;2022-11-21T00:59:36;98709.63;;;3.78;60.50
30021;BME280;16861;52.294;7.760;2022-11-21T01:02:03;98707.78;;;3.80;61.01
30021;BME280;16861;52.294;7.760;2022-11-21T01:04:34;98699.13;;;3.80;61.19
30021;BME280;16861;52.294;7.760;2022-11-21T01:07:00;98712.91;;;3.82;61.25
30021;BME280;16861;52.294;7.760;2022-11-21T01:09:27;98725.88;;;3.83;60.89
30021;BME280;16861;52.294;7.760;2022-11-21T01:11:55;98734.44;;;3.85;61.13
30021;BME280;16861;52.294;7.760;2022-11-21T01:14:22;98735.28;;;3.86;60.92
30021;BME280;16861;52.294;7.760;2022-11-21T01:16:48;98731.84;;;3.85;60.78
30021;BME280;16861;52.294;7.760;2022-11-21T01:19:15;98727.47;;;3.86;60.58
30021;BME280;16861;52.294;7.760;2022-11-21T01:21:41;98718.81;;;3.85;60.58
30021;BME280;16861;52.294;7.760;2022-11-21T01:24:10;98725.00;;;3.83;60.58
30021;BME280;16861;52.294;7.760;2022-11-21T01:26:37;98723.25;;;3.83;60.98
30021;BME280;16861;52.294;7.760;2022-11-21T01:29:04;98725.00;;;3.83;60.83
30021;BME280;16861;52.294;7.760;2022-11-21T01:31:30;98731.13;;;3.82;60.49
30021;BME280;16861;52.294;7.760;2022-11-21T01:33:58;98731.13;;;3.82;60.95
30021;BME280;16861;52.294;7.760;2022-11-21T01:36:32;98715.59;;;3.80;60.98
30021;BME280;16861;52.294;7.760;2022-11-21T01:39:02;98719.03;;;3.81;61.13
30021;BME280;16861;52.294;7.760;2022-11-21T01:41:34;98715.59;;;3.80;60.99
30021;BME280;16861;52.294;7.760;2022-11-21T01:44:21;98723.41;;;3.80;61.05
30021;BME280;16861;52.294;7.760;2022-11-21T01:46:48;98734.44;;;3.85;60.81
30021;BME280;16861;52.294;7.760;2022-11-21T01:49:30;98740.63;;;3.83;61.50
30021;BME280;16861;52.294;7.760;2022-11-21T01:52:18;98738.03;;;3.83;61.16
30021;BME280;16861;52.294;7.760;2022-11-21T01:54:54;98739.72;;;3.84;60.97
30021;BME280;16861;52.294;7.760;2022-11-21T01:57:27;98743.09;;;3.86;60.71
30021;BME280;16861;52.294;7.760;2022-11-21T02:00:02;98745.78;;;3.84;60.92
30021;BME280;16861;52.294;7.760;2022-11-21T02:02:33;98741.41;;;3.85;60.77
30021;BME280;16861;52.294;7.760;2022-11-21T02:05:02;98720.59;;;3.85;60.86
30021;BME280;16861;52.294;7.760;2022-11-21T02:07:33;98714.59;;;3.83;60.63
30021;BME280;16861;52.294;7.760;2022-11-21T02:10:02;98702.38;;;3.85;60.80
30021;BME280;16861;52.294;7.760;2022-11-21T02:12:48;98715.53;;;3.82;60.92
30021;BME280;16861;52.294;7.760;2022-11-21T02:15:21;98725.06;;;3.81;60.82
30021;BME280;16861;52.294;7.760;2022-11-21T02:17:48;98724.09;;;3.84;60.57
30021;BME280;16861;52.294;7.760;2022-11-21T02:20:17;98712.06;;;3.81;60.78
30021;BME280;16861;52.294;7.760;2022-11-21T02:22:56;98712.97;;;3.80;60.85
30021;BME280;16861;52.294;7.760;2022-11-21T02:25:27;98708.63;;;3.81;60.21
30021;BME280;16861;52.294;7.760;2022-11-21T02:27:58;98717.34;;;3.80;60.53
30021;BME280;16861;52.294;7.760;2022-11-21T02:30:27;98721.72;;;3.79;60.71
30021;BME280;16861;52.294;7.760;2022-11-21T02:32:54;98711.38;;;3.77;60.50
30021;BME280;16861;52.294;7.760;2022-11-21T02:35:20;98728.84;;;3.75;60.58
30021;BME280;16861;52.294;7.760;2022-11-21T02:38:16;98727.19;;;3.73;60.57
30021;BME280;16861;52.294;7.760;2022-11-21T02:40:40;98732.38;;;3.73;60.58
30021;BME280;16861;52.294;7.760;2022-11-21T02:43:16;98733.38;;;3.70;60.97
30021;BME280;16861;52.294;7.760;2022-11-21T02:45:46;98735.00;;;3.73;60.49
30021;BME280;16861;52.294;7.760;2022-11-21T02:48:13;98729.78;;;3.73;60.58
30021;BME280;16861;52.294;7.760;2022-11-21T02:50:41;98728.03;;;3.73;60.64
30021;BME280;16861;52.294;7.760;2022-11-21T02:53:11;98728.03;;;3.73;60.64
30021;BME280;16861;52.294;7.760;2022-11-21T02:55:38;98719.31;;;3.74;60.70
30021;BME280;16861;52.294;7.760;2022-11-21T02:58:05;98724.50;;;3.74;60.23
30021;BME280;16861;52.294;7.760;2022-11-21T03:00:33;98726.22;;;3.75;60.61
30021;BME280;16861;52.294;7.760;2022-11-21T03:03:00;98721.03;;;3.75;60.67
30021;BME280;16861;52.294;7.760;2022-11-21T03:05:27;98718.41;;;3.75;60.64
30021;BME280;16861;52.294;7.760;2022-11-21T03:07:53;98714.91;;;3.76;60.58
30021;BME280;16861;52.294;7.760;2022-11-21T03:10:19;98723.53;;;3.77;60.89
30021;BME280;16861;52.294;7.760;2022-11-21T03:12:46;98725.25;;;3.78;60.72
30021;BME280;16861;52.294;7.760;2022-11-21T03:15:14;98727.75;;;3.80;61.00
30021;BME280;16861;52.294;7.760;2022-11-21T03:17:41;98724.25;;;3.81;60.63
30021;BME280;16861;52.294;7.760;2022-11-21T03:20:08;98728.47;;;3.83;60.67
30021;BME280;16861;52.294;7.760;2022-11-21T03:22:35;98723.19;;;3.85;60.76
30021;BME280;16861;52.294;7.760;2022-11-21T03:25:02;98728.34;;;3.86;60.93
30021;BME280;16861;52.294;7.760;2022-11-21T03:27:28;98727.34;;;3.89;60.78
30021;BME280;16861;52.294;7.760;2022-11-21T03:29:55;98722.03;;;3.90;61.00
30021;BME280;16861;52.294;7.760;2022-11-21T03:32:21;98719.38;;;3.92;60.73
30021;BME280;16861;52.294;7.760;2022-11-21T03:34:48;98725.44;;;3.93;60.80
30021;BME280;16861;52.294;7.760;2022-11-21T03:37:14;98725.38;;;3.94;60.97
30021;BME280;16861;52.294;7.760;2022-11-21T03:39:42;98729.66;;;3.95;61.14
30021;BME280;16861;52.294;7.760;2022-11-21T03:42:08;98729.59;;;3.97;61.08
30021;BME280;16861;52.294;7.760;2022-11-21T03:44:34;98731.28;;;3.98;60.78
30021;BME280;16861;52.294;7.760;2022-11-21T03:47:01;98734.72;;;3.98;61.31
30021;BME280;16861;52.294;7.760;2022-11-21T03:49:27;98731.22;;;3.99;60.96
30021;BME280;16861;52.294;7.760;2022-11-21T03:51:54;98738.09;;;4.00;60.84
30021;BME280;16861;52.294;7.760;2022-11-21T03:54:20;98734.56;;;4.01;60.88
30021;BME280;16861;52.294;7.760;2022-11-21T03:56:46;98728.53;;;4.01;60.53
30021;BME280;16861;52.294;7.760;2022-11-21T03:59:13;98733.75;;;4.01;60.73
30021;BME280;16861;52.294;7.760;2022-11-21T04:01:41;98722.47;;;4.00;60.77
30021;BME280;16861;52.294;7.760;2022-11-21T04:04:07;98720.78;;;3.99;60.93
30021;BME280;16861;52.294;7.760;2022-11-21T04:06:34;98718.19;;;3.99;60.99
30021;BME280;16861;52.294;7.760;2022-11-21T04:09:00;98723.47;;;3.98;60.79
30021;BME280;16861;52.294;7.760;2022-11-21T04:11:26;98727.84;;;3.97;61.04
30021;BME280;16861;52.294;7.760;2022-11-21T04:13:53;98726.91;;;3.98;60.67
30021;BME280;16861;52.294;7.760;2022-11-21T04:16:19;98720.03;;;3.97;60.83
30021;BME280;16861;52.294;7.760;2022-11-21T04:18:46;98720.94;;;3.96;60.70
30021;BME280;16861;52.294;7.760;2022-11-21T04:21:12;98720.94;;;3.96;61.01
30021;BME280;16861;52.294;7.760;2022-11-21T04:23:38;98713.19;;;3.95;60.94
30021;BME280;16861;52.294;7.760;2022-11-21T04:26:05;98714.09;;;3.94;61.00
30021;BME280;16861;52.294;7.760;2022-11-21T04:28:31;98713.28;;;3.93;60.72
30021;BME280;16861;52.294;7.760;2022-11-21T04:31:05;98717.69;;;3.91;61.30
30021;BME280;16861;52.294;7.760;2022-11-21T04:33:35;98714.97;;;3.94;61.00
30021;BME280;16861;52.294;7.760;2022-11-21T04:36:02;98721.09;;;3.93;60.97
30021;BME280;16861;52.294;7.760;2022-11-21T04:38:28;98708.81;;;3.95;61.09
30021;BME280;16861;52.294;7.760;2022-11-21T04:40:55;98706.22;;;3.95;61.12
30021;BME280;16861;52.294;7.760;2022-11-21T04:43:21;98703.56;;;3.97;61.16
30021;BME280;16861;52.294;7.760;2022-11-21T04:45:47;98699.19;;;3.97;61.12
30021;BME280;16861;52.294;7.760;2022-11-21T04:48:14;98700.94;;;3.97;61.09
30021;BME280;16861;52.294;7.760;2022-11-21T04:50:40;98703.56;;;3.97;60.91
30021;BME280;16861;52.294;7.760;2022-11-21T04:53:07;98706.16;;;3.97;61.05
30021;BME280;16861;52.294;7.760;2022-11-21T04:55:33;98707.91;;;3.96;61.08
30021;BME280;16861;52.294;7.760;2022-11-21T04:57:59;98710.50;;;3.96;60.57
30021;BME280;16861;52.294;7.760;2022-11-21T05:00:26;98699.34;;;3.94;60.91
30021;BME280;16861;52.294;7.760;2022-11-21T05:02:52;98701.94;;;3.94;60.70
30021;BME280;16861;52.294;7.760;2022-11-21T05:05:19;98707.16;;;3.94;60.82
30021;BME280;16861;52.294;7.760;2022-11-21T05:07:45;98709.75;;;3.94;60.92
30021;BME280;16861;52.294;7.760;2022-11-21T05:10:12;98710.69;;;3.93;60.72
30021;BME280;16861;52.294;7.760;2022-11-21T05:12:38;98717.63;;;3.93;60.92
30021;BME280;16861;52.294;7.760;2022-11-21T05:15:23;98711.56;;;3.92;60.60
30021;BME280;16861;52.294;7.760;2022-11-21T05:17:50;98720.31;;;3.91;60.87
30021;BME280;16861;52.294;7.760;2022-11-21T05:20:17;98715.16;;;3.89;60.78
30021;BME280;16861;52.294;7.760;2022-11-21T05:22:44;98713.53;;;3.87;60.81
30021;BME280;16861;52.294;7.760;2022-11-21T05:25:15;98715.38;;;3.85;60.72
30021;BME280;16861;52.294;7.760;2022-11-21T05:27:41;98722.41;;;3.83;60.21
30021;BME280;16861;52.294;7.760;2022-11-21T05:30:08;98714.03;;;3.76;60.07
30021;BME280;16861;52.294;7.760;2022-11-21T05:32:35;98705.53;;;3.72;60.17
30021;BME280;16861;52.294;7.760;2022-11-21T05:35:01;98705.72;;;3.68;60.11
30021;BME280;16861;52.294;7.760;2022-11-21T05:37:28;98699.97;;;3.61;60.37
30021;BME280;16861;52.294;7.760;2022-11-21T05:39:54;98702.78;;;3.56;60.10
30021;BME280;16861;52.294;7.760;2022-11-21T05:42:20;98700.50;;;3.48;59.92
30021;BME280;16861;52.294;7.760;2022-11-21T05:45:07;98711.22;;;3.42;60.36
30021;BME280;16861;52.294;7.760;2022-11-21T05:47:34;98707.97;;;3.37;60.58
30021;BME280;16861;52.294;7.760;2022-11-21T05:50:00;98707.19;;;3.35;60.62
30021;BME280;16861;52.294;7.760;2022-11-21T05:52:27;98703.81;;;3.33;60.93
30021;BME280;16861;52.294;7.760;2022-11-21T05:54:56;98709.16;;;3.30;60.57
30021;BME280;16861;52.294;7.760;2022-11-21T05:57:23;98712.66;;;3.29;60.71
30021;BME280;16861;52.294;7.760;2022-11-21T05:59:49;98711.06;;;3.26;60.45
30021;BME280;16861;52.294;7.760;2022-11-21T06:02:15;98710.31;;;3.22;60.45
30021;BME280;16861;52.294;7.760;2022-11-21T06:05:01;98713.97;;;3.18;60.42
30021;BME280;16861;52.294;7.760;2022-11-21T06:07:27;98706.31;;;3.15;60.60
30021;BME280;16861;52.294;7.760;2022-11-21T06:09:53;98709.91;;;3.12;60.89
30021;BME280;16861;52.294;7.760;2022-11-21T06:12:20;98715.34;;;3.06;60.67
30021;BME280;16861;52.294;7.760;2022-11-21T06:14:50;98716.38;;;3.02;60.40
30021;BME280;16861;52.294;7.760;2022-11-21T06:17:17;98716.66;;;2.96;60.81
30021;BME280;16861;52.294;7.760;2022-11-21T06:19:43;98716.84;;;2.91;60.61
30021;BME280;16861;52.294;7.760;2022-11-21T06:22:10;98714.50;;;2.85;60.92
30021;BME280;16861;52.294;7.760;2022-11-21T06:24:36;98710.41;;;2.79;60.71
30021;BME280;16861;52.294;7.760;2022-11-21T06:27:02;98713.28;;;2.73;60.73
30021;BME280;16861;52.294;7.760;2022-11-21T06:29:29;98710.84;;;2.68;61.07
30021;BME280;16861;52.294;7.760;2022-11-21T06:31:55;98706.69;;;2.64;60.75
30021;BME280;16861;52.294;7.760;2022-11-21T06:34:24;98708.59;;;2.60;61.40
30021;BME280;16861;52.294;7.760;2022-11-21T06:36:51;98707.84;;;2.57;60.82
30021;BME280;16861;52.294;7.760;2022-11-21T06:39:17;98700.19;;;2.54;60.83
30021;BME280;16861;52.294;7.760;2022-11-21T06:41:44;98695.97;;;2.51;61.21
30021;BME280;16861;52.294;7.760;2022-11-21T06:44:17;98692.59;;;2.49;61.19
30021;BME280;16861;52.294;7.760;2022-11-21T06:46:44;98690.91;;;2.48;61.47
30021;BME280;16861;52.294;7.760;2022-11-21T06:49:16;98688.31;;;2.48;61.59
30021;BME280;16861;52.294;7.760;2022-11-21T06:51:42;98689.13;;;2.48;61.45
30021;BME280;16861;52.294;7.760;2022-11-21T06:54:08;98685.75;;;2.46;61.13
30021;BME280;16861;52.294;7.760;2022-11-21T06:56:41;98688.41;;;2.45;61.63
30021;BME280;16861;52.294;7.760;2022-11-21T06:59:08;98686.63;;;2.47;61.15
30021;BME280;16861;52.294;7.760;2022-11-21T07:01:34;98684.19;;;2.42;61.00
30021;BME280;16861;52.294;7.760;2022-11-21T07:04:00;98681.72;;;2.39;61.36
30021;BME280;16861;52.294;7.760;2022-11-21T07:06:27;98676.56;;;2.38;61.83
30021;BME280;16861;52.294;7.760;2022-11-21T07:08:53;98680.16;;;2.35;61.20
30021;BME280;16861;52.294;7.760;2022-11-21T07:11:40;98689.66;;;2.36;61.58
30021;BME280;16861;52.294;7.760;2022-11-21T07:14:06;98693.06;;;2.37;61.00
30021;BME280;16861;52.294;7.760;2022-11-21T07:16:34;98686.09;;;2.39;61.76
30021;BME280;16861;52.294;7.760;2022-11-21T07:19:01;98686.09;;;2.39;62.10
30021;BME280;16861;52.294;7.760;2022-11-21T07:21:27;98687.72;;;2.41;61.31
30021;BME280;16861;52.294;7.760;2022-11-21T07:23:54;98701.47;;;2.43;61.40
30021;BME280;16861;52.294;7.760;2022-11-21T07:26:20;98693.66;;;2.43;61.60
30021;BME280;16861;52.294;7.760;2022-11-21T07:28:46;98693.66;;;2.43;61.71
30021;BME280;16861;52.294;7.760;2022-11-21T07:31:13;98699.78;;;2.42;61.18
30021;BME280;16861;52.294;7.760;2022-11-21T07:33:40;98706.81;;;2.40;61.17
30021;BME280;16861;52.294;7.760;2022-11-21T07:36:10;98705.16;;;2.38;61.89
30021;BME280;16861;52.294;7.760;2022-11-21T07:38:36;98700.16;;;2.33;60.95
30021;BME280;16861;52.294;7.760;2022-11-21T07:41:03;98702.88;;;2.30;61.56
30021;BME280;16861;52.294;7.760;2022-11-21T07:43:29;98696.09;;;2.26;61.88
30021;BME280;16861;52.294;7.760;2022-11-21T07:45:55;98692.75;;;2.24;62.27
30021;BME280;16861;52.294;7.760;2022-11-21T07:48:22;98693.72;;;2.21;61.73
30021;BME280;16861;52.294;7.760;2022-11-21T07:50:48;98698.97;;;2.19;62.27
30021;BME280;16861;52.294;7.760;2022-11-21T07:53:15;98699.06;;;2.16;62.48
30021;BME280;16861;52.294;7.760;2022-11-21T07:55:41;98693.94;;;2.15;62.73
30021;BME280;16861;52.294;7.760;2022-11-21T07:58:10;98695.75;;;2.13;62.72
30021;BME280;16861;52.294;7.760;2022-11-21T08:00:39;98689.72;;;2.12;62.82
30021;BME280;16861;52.294;7.760;2022-11-21T08:03:05;98683.66;;;2.12;62.77
30021;BME280;16861;52.294;7.760;2022-11-21T08:05:39;98688.03;;;2.11;63.27
30021;BME280;16861;52.294;7.760;2022-11-21T10:26:51;98603.31;;;4.06;63.96
30021;BME280;16861;52.294;7.760;2022-11-21T10:32:21;98577.28;;;4.23;64.22
30021;BME280;16861;52.294;7.760;2022-11-21T10:34:54;98570.69;;;4.34;64.05
30021;BME280;16861;52.294;7.760;2022-11-21T10:43:30;98580.47;;;4.64;64.08
30021;BME280;16861;52.294;7.760;2022-11-21T10:46:17;98577.06;;;4.79;63.78
30021;BME280;16861;52.294;7.760;2022-11-21T10:49:13;98576.69;;;4.87;64.05
30021;BME280;16861;52.294;7.760;2022-11-21T10:51:53;98564.66;;;5.01;64.72
30021;BME280;16861;52.294;7.760;2022-11-21T10:54:22;98553.97;;;5.21;64.92
30021;BME280;16861;52.294;7.760;2022-11-21T10:57:12;98554.66;;;5.41;65.09
30021;BME280;16861;52.294;7.760;2022-11-21T10:59:40;98552.22;;;5.70;66.43
30021;BME280;16861;52.294;7.760;2022-11-21T11:04:40;98545.81;;;6.37;66.82
30021;BME280;16861;52.294;7.760;2022-11-21T11:07:25;98545.84;;;6.81;66.64
30021;BME280;16861;52.294;7.760;2022-11-21T11:10:21;98535.28;;;7.39;66.70
30021;BME280;16861;52.294;7.760;2022-11-21T11:12:53;98527.88;;;8.14;71.72
30021;BME280;16861;52.294;7.760;2022-11-21T11:18:41;98521.56;;;10.06;70.23
30021;BME280;16861;52.294;7.760;2022-11-21T11:23:42;98523.47;;;11.96;68.48
30021;BME280;16861;52.294;7.760;2022-11-21T11:26:28;98500.69;;;12.90;61.99
30021;BME280;16861;52.294;7.760;2022-11-21T11:34:17;98497.19;;;15.34;57.21
30021;BME280;16861;52.294;7.760;2022-11-21T11:36:53;98493.94;;;15.58;51.45
30021;BME280;16861;52.294;7.760;2022-11-21T11:39:37;98490.78;;;15.55;49.72
30021;BME280;16861;52.294;7.760;2022-11-21T11:48:07;98483.53;;;14.25;48.16
30021;BME280;16861;52.294;7.760;2022-11-21T11:50:43;98484.03;;;13.71;48.30
30021;BME280;16861;52.294;7.760;2022-11-21T11:53:23;98477.66;;;13.12;48.63
30021;BME280;16861;52.294;7.760;2022-11-21T11:56:02;98478.78;;;12.69;50.04
30021;BME280;16861;52.294;7.760;2022-11-21T11:58:49;98471.69;;;12.07;49.54
30021;BME280;16861;52.294;7.760;2022-11-21T12:04:16;98473.06;;;11.13;50.58
30021;BME280;16861;52.294;7.760;2022-11-21T12:06:49;98457.13;;;10.70;50.90
30021;BME280;16861;52.294;7.760;2022-11-21T12:12:38;98457.25;;;9.87;51.71
30021;BME280;16861;52.294;7.760;2022-11-21T12:23:26;98447.91;;;8.85;53.49
30021;BME280;16861;52.294;7.760;2022-11-21T12:31:30;98427.75;;;8.35;54.30
30021;BME280;16861;52.294;7.760;2022-11-21T12:34:14;98434.88;;;8.20;54.39
30021;BME280;16861;52.294;7.760;2022-11-21T12:36:57;98432.66;;;8.01;54.06
30021;BME280;16861;52.294;7.760;2022-11-21T12:42:25;98421.31;;;7.61;55.23
30021;BME280;16861;52.294;7.760;2022-11-21T12:51:08;98393.44;;;7.20;56.21
30021;BME280;16861;52.294;7.760;2022-11-21T12:59:24;98380.50;;;7.03;56.91
30021;BME280;16861;52.294;7.760;2022-11-21T13:02:23;98365.41;;;6.94;57.35
30021;BME280;16861;52.294;7.760;2022-11-21T13:04:53;98376.72;;;6.95;57.27
30021;BME280;16861;52.294;7.760;2022-11-21T13:07:22;98356.00;;;6.91;57.16
30021;BME280;16861;52.294;7.760;2022-11-21T13:09:52;98359.56;;;6.90;57.73
30021;BME280;16861;52.294;7.760;2022-11-21T13:18:22;98347.88;;;6.96;58.00
30021;BME280;16861;52.294;7.760;2022-11-21T13:20:51;98333.41;;;7.03;58.33
30021;BME280;16861;52.294;7.760;2022-11-21T13:23:40;98335.00;;;7.06;58.22
30021;BME280;16861;52.294;7.760;2022-11-21T13:29:11;98344.03;;;7.15;58.34
30021;BME280;16861;52.294;7.760;2022-11-21T13:31:38;98341.09;;;7.20;57.95
30021;BME280;16861;52.294;7.760;2022-11-21T13:36:57;98334.94;;;7.21;58.16
30021;BME280;16861;52.294;7.760;2022-11-21T13:42:00;98332.19;;;7.22;58.90
30021;BME280;16861;52.294;7.760;2022-11-21T13:44:46;98331.72;;;7.30;58.41
30021;BME280;16861;52.294;7.760;2022-11-21T13:50:04;98324.69;;;7.30;58.63
30021;BME280;16861;52.294;7.760;2022-11-21T13:53:21;98311.50;;;7.32;58.22
30021;BME280;16861;52.294;7.760;2022-11-21T14:03:51;98299.44;;;7.16;58.33
30021;BME280;16861;52.294;7.760;2022-11-21T14:06:37;98297.97;;;7.12;58.48
30021;BME280;16861;52.294;7.760;2022-11-21T14:09:18;98291.78;;;7.13;58.56
30021;BME280;16861;52.294;7.760;2022-11-21T14:11:55;98287.69;;;7.09;58.92
30021;BME280;16861;52.294;7.760;2022-11-21T14:19:46;98271.28;;;7.07;58.69
30021;BME280;16861;52.294;7.760;2022-11-21T14:22:24;98271.66;;;7.01;59.37
30021;BME280;16861;52.294;7.760;2022-11-21T14:24:58;98268.00;;;7.03;59.05
30021;BME280;16861;52.294;7.760;2022-11-21T14:27:29;98266.44;;;7.01;59.04
30021;BME280;16861;52.294;7.760;2022-11-21T14:29:56;98261.22;;;7.01;59.18
30021;BME280;16861;52.294;7.760;2022-11-21T14:32:26;98256.16;;;6.98;59.35
30021;BME280;16861;52.294;7.760;2022-11-21T14:35:10;98251.97;;;6.95;59.87
30021;BME280;16861;52.294;7.760;2022-11-21T14:37:45;98248.31;;;6.98;59.50
30021;BME280;16861;52.294;7.760;2022-11-21T14:40:20;98247.78;;;6.93;59.25
30021;BME280;16861;52.294;7.760;2022-11-21T14:42:46;98255.66;;;6.93;59.10
30021;BME280;16861;52.294;7.760;2022-11-21T14:45:22;98249.97;;;6.86;59.97
30021;BME280;16861;52.294;7.760;2022-11-21T14:47:49;98249.16;;;6.85;59.45
30021;BME280;16861;52.294;7.760;2022-11-21T14:50:24;98246.09;;;6.78;59.89
30021;BME280;16861;52.294;7.760;2022-11-21T14:52:50;98237.50;;;6.76;59.01
30021;BME280;16861;52.294;7.760;2022-11-21T14:55:29;98231.75;;;6.71;60.02
30021;BME280;16861;52.294;7.760;2022-11-21T14:57:59;98227.47;;;6.70;59.79
30021;BME280;16861;52.294;7.760;2022-11-21T15:00:28;98223.25;;;6.68;60.08
30021;BME280;16861;52.294;7.760;2022-11-21T15:03:20;98224.28;;;6.65;60.49
30021;BME280;16861;52.294;7.760;2022-11-21T15:05:48;98210.41;;;6.64;59.98
30021;BME280;16861;52.294;7.760;2022-11-21T15:08:35;98213.97;;;6.63;60.21
30021;BME280;16861;52.294;7.760;2022-11-21T15:11:24;98216.59;;;6.63;60.29
30021;BME280;16861;52.294;7.760;2022-11-21T15:13:58;98219.28;;;6.62;61.11
30021;BME280;16861;52.294;7.760;2022-11-21T15:16:45;98207.03;;;6.62;60.81
30021;BME280;16861;52.294;7.760;2022-11-21T15:19:19;98197.53;;;6.61;61.06
30021;BME280;16861;52.294;7.760;2022-11-21T15:21:46;98188.63;;;6.64;60.44
30021;BME280;16861;52.294;7.760;2022-11-21T15:24:17;98192.28;;;6.61;61.04
30021;BME280;16861;52.294;7.760;2022-11-21T15:26:44;98191.34;;;6.62;60.73
30021;BME280;16861;52.294;7.760;2022-11-21T15:29:18;98192.41;;;6.60;61.39
30021;BME280;16861;52.294;7.760;2022-11-21T15:32:09;98187.25;;;6.58;61.72
30021;BME280;16861;52.294;7.760;2022-11-21T15:34:42;98187.06;;;6.61;60.77
30021;BME280;16861;52.294;7.760;2022-11-21T15:37:14;98177.66;;;6.59;61.31
30021;BME280;16861;52.294;7.760;2022-11-21T15:39:42;98173.28;;;6.59;61.01
30021;BME280;16861;52.294;7.760;2022-11-21T15:44:59;98157.69;;;6.58;61.04
30021;BME280;16861;52.294;7.760;2022-11-21T15:47:26;98149.09;;;6.56;60.82
30021;BME280;16861;52.294;7.760;2022-11-21T15:49:52;98143.88;;;6.56;60.94
30021;BME280;16861;52.294;7.760;2022-11-21T15:52:19;98143.03;;;6.55;61.05
30021;BME280;16861;52.294;7.760;2022-11-21T15:54:45;98145.84;;;6.52;61.03
30021;BME280;16861;52.294;7.760;2022-11-21T15:57:12;98142.50;;;6.50;60.75
30021;BME280;16861;52.294;7.760;2022-11-21T15:59:42;98146.16;;;6.47;60.87
30021;BME280;16861;52.294;7.760;2022-11-21T16:02:11;98141.88;;;6.46;61.48
30021;BME280;16861;52.294;7.760;2022-11-21T16:04:40;98142.81;;;6.45;61.17
30021;BME280;16861;52.294;7.760;2022-11-21T16:07:06;98142.91;;;6.44;61.26
30021;BME280;16861;52.294;7.760;2022-11-21T16:09:33;98128.28;;;6.41;61.40
30021;BME280;16861;52.294;7.760;2022-11-21T16:12:01;98127.41;;;6.41;61.25
30021;BME280;16861;52.294;7.760;2022-11-21T16:14:27;98118.00;;;6.38;61.46
30021;BME280;16861;52.294;7.760;2022-11-21T16:16:53;98119.06;;;6.35;61.40
30021;BME280;16861;52.294;7.760;2022-11-21T16:19:20;98114.88;;;6.33;61.29
30021;BME280;16861;52.294;7.760;2022-11-21T16:21:46;98120.28;;;6.30;61.46
30021;BME280;16861;52.294;7.760;2022-11-21T16:24:13;98118.81;;;6.25;61.44
30021;BME280;16861;52.294;7.760;2022-11-21T16:26:39;98118.19;;;6.22;61.60
30021;BME280;16861;52.294;7.760;2022-11-21T16:29:05;98113.16;;;6.19;61.74
30021;BME280;16861;52.294;7.760;2022-11-21T16:31:32;98108.16;;;6.16;62.15
30021;BME280;16861;52.294;7.760;2022-11-21T16:33:59;98096.00;;;6.15;61.92
30021;BME280;16861;52.294;7.760;2022-11-21T16:36:28;98096.00;;;6.15;62.19
30021;BME280;16861;52.294;7.760;2022-11-21T16:42:01;98085.78;;;6.11;62.92
30021;BME280;16861;52.294;7.760;2022-11-21T16:44:28;98084.72;;;6.14;62.11
30021;BME280;16861;52.294;7.760;2022-11-21T16:46:56;98077.00;;;6.12;62.58
30021;BME280;16861;52.294;7.760;2022-11-21T16:49:22;98062.97;;;6.13;62.32
30021;BME280;16861;52.294;7.760;2022-11-21T16:51:57;98057.13;;;6.10;63.43
30021;BME280;16861;52.294;7.760;2022-11-21T16:54:24;98055.34;;;6.10;62.45
30021;BME280;16861;52.294;7.760;2022-11-21T16:56:55;98050.34;;;6.07;62.71
30021;BME280;16861;52.294;7.760;2022-11-21T16:59:22;98048.44;;;6.09;62.41
30021;BME280;16861;52.294;7.760;2022-11-21T17:01:50;98046.03;;;6.06;63.04
30021;BME280;16861;52.294;7.760;2022-11-21T17:04:17;98046.88;;;6.07;62.49
30021;BME280;16861;52.294;7.760;2022-11-21T17:06:56;98048.09;;;6.01;63.66
30021;BME280;16861;52.294;7.760;2022-11-21T17:09:23;98039.25;;;6.04;62.85
30021;BME280;16861;52.294;7.760;2022-11-21T17:11:57;98030.75;;;6.00;63.57
30021;BME280;16861;52.294;7.760;2022-11-21T17:14:24;98031.47;;;6.02;62.76
30021;BME280;16861;52.294;7.760;2022-11-21T17:16:51;98022.91;;;6.00;62.77
30021;BME280;16861;52.294;7.760;2022-11-21T17:19:18;98023.84;;;5.99;62.62
30021;BME280;16861;52.294;7.760;2022-11-21T17:21:44;98019.59;;;5.98;62.73
30021;BME280;16861;52.294;7.760;2022-11-21T17:24:12;98009.44;;;5.93;62.83